createdAt,value
2018-07-01T00:00:55.930Z,15.80
2018-07-01T00:03:24.449Z,15.70
2018-07-01T00:05:53.816Z,15.60
2018-07-01T00:08:22.354Z,15.60
2018-07-01T00:10:50.929Z,15.60
2018-07-01T00:13:19.552Z,15.50
2018-07-01T00:15:48.362Z,15.50
2018-07-01T00:18:16.842Z,15.40
2018-07-01T00:20:46.026Z,15.30
2018-07-01T00:23:15.392Z,15.30
2018-07-01T00:25:44.205Z,15.30
2018-07-01T00:28:13.967Z,15.20
2018-07-01T00:30:43.196Z,15.10
2018-07-01T00:33:12.051Z,15.10
2018-07-01T00:35:40.858Z,15.20
2018-07-01T00:38:09.369Z,15.20
2018-07-01T00:40:38.547Z,15.10
2018-07-01T00:43:07.385Z,15.00
2018-07-01T00:45:35.888Z,15.00
2018-07-01T00:48:04.729Z,14.90
2018-07-01T00:50:34.035Z,14.90
2018-07-01T00:53:02.531Z,15.00
2018-07-01T00:55:31.374Z,15.00
2018-07-01T00:57:59.867Z,15.00
2018-07-01T01:00:31.665Z,14.90
2018-07-01T01:03:00.825Z,15.00
2018-07-01T01:05:29.336Z,15.00
2018-07-01T01:07:58.792Z,15.00
2018-07-01T01:10:27.478Z,15.00
2018-07-01T01:12:57.494Z,15.00
2018-07-01T01:15:26.340Z,14.80
2018-07-01T01:17:55.045Z,14.70
2018-07-01T01:20:23.890Z,14.70
2018-07-01T01:22:53.032Z,14.70
2018-07-01T01:25:21.505Z,14.70
2018-07-01T01:27:50.290Z,14.80
2018-07-01T01:30:19.479Z,14.70
2018-07-01T01:32:48.309Z,14.80
2018-07-01T01:35:17.143Z,14.90
2018-07-01T01:37:45.996Z,14.90
2018-07-01T01:40:17.883Z,14.70
2018-07-01T01:42:50.333Z,14.70
2018-07-01T01:45:24.333Z,14.70
2018-07-01T01:47:59.177Z,14.60
2018-07-01T01:51:03.321Z,14.60
2018-07-01T01:54:36.277Z,14.60
2018-07-01T01:57:12.858Z,14.50
2018-07-01T01:59:47.073Z,14.40
2018-07-01T02:02:22.829Z,14.50
2018-07-01T02:05:26.228Z,14.50
2018-07-01T02:10:28.161Z,14.40
2018-07-01T02:12:56.674Z,14.30
2018-07-01T02:15:29.172Z,14.30
2018-07-01T02:17:57.669Z,14.20
2018-07-01T02:20:29.196Z,14.20
2018-07-01T02:23:04.977Z,14.10
2018-07-01T02:25:35.389Z,14.10
2018-07-01T02:28:03.866Z,14.20
2018-07-01T02:30:33.865Z,14.00
2018-07-01T02:33:02.690Z,13.90
2018-07-01T02:35:31.580Z,13.90
2018-07-01T02:38:01.049Z,13.80
2018-07-01T02:40:30.157Z,13.80
2018-07-01T02:45:27.796Z,13.60
2018-07-01T02:47:56.302Z,13.70
2018-07-01T02:50:25.453Z,13.60
2018-07-01T02:52:54.282Z,13.60
2018-07-01T02:55:23.113Z,13.60
2018-07-01T02:57:52.182Z,13.80
2018-07-01T03:00:20.684Z,13.60
2018-07-01T03:02:49.549Z,13.50
2018-07-01T03:05:18.607Z,13.50
2018-07-01T03:07:47.115Z,13.50
2018-07-01T03:10:16.334Z,13.50
2018-07-01T03:12:45.177Z,13.40
2018-07-01T03:15:13.672Z,13.30
2018-07-01T03:17:42.497Z,13.30
2018-07-01T03:20:11.352Z,13.30
2018-07-01T03:22:40.182Z,13.30
2018-07-01T03:25:08.698Z,13.20
2018-07-01T03:27:37.269Z,13.20
2018-07-01T03:30:06.121Z,13.20
2018-07-01T03:32:35.736Z,13.20
2018-07-01T03:35:04.582Z,13.10
2018-07-01T03:37:33.443Z,13.00
2018-07-01T03:40:03.161Z,13.00
2018-07-01T03:42:32.557Z,13.00
2018-07-01T03:45:01.081Z,13.00
2018-07-01T03:47:29.975Z,13.00
2018-07-01T03:49:58.501Z,13.10
2018-07-01T03:52:27.330Z,13.00
2018-07-01T03:54:56.170Z,12.90
2018-07-01T03:57:25.686Z,12.90
2018-07-01T03:59:54.197Z,12.90
2018-07-01T04:02:22.686Z,13.00
2018-07-01T04:04:51.521Z,12.90
2018-07-01T04:07:20.041Z,12.90
2018-07-01T04:09:49.206Z,12.90
2018-07-01T04:12:18.709Z,12.90
2018-07-01T04:14:47.197Z,12.90
2018-07-01T04:17:16.023Z,12.90
2018-07-01T04:19:45.205Z,12.90
2018-07-01T04:22:13.715Z,13.00
2018-07-01T04:24:42.232Z,13.20
2018-07-01T04:27:11.397Z,13.10
2018-07-01T04:29:40.225Z,13.00
2018-07-01T04:32:08.721Z,13.00
2018-07-01T04:34:37.197Z,13.10
2018-07-01T04:37:06.389Z,13.20
2018-07-01T04:39:35.540Z,13.20
2018-07-01T04:42:04.726Z,13.20
2018-07-01T04:44:33.246Z,13.20
2018-07-01T04:47:02.405Z,13.30
2018-07-01T04:49:31.240Z,13.40
2018-07-01T04:52:00.061Z,13.50
2018-07-01T04:54:28.906Z,13.60
2018-07-01T04:56:57.395Z,13.80
2018-07-01T04:59:25.908Z,13.90
2018-07-01T05:01:54.483Z,14.00
2018-07-01T05:04:23.103Z,14.10
2018-07-01T05:06:51.926Z,14.10
2018-07-01T05:09:20.773Z,14.20
2018-07-01T05:11:49.287Z,14.30
2018-07-01T05:14:19.072Z,14.30
2018-07-01T05:16:47.896Z,14.30
2018-07-01T05:19:16.725Z,14.20
2018-07-01T05:21:45.210Z,14.30
2018-07-01T05:24:14.074Z,14.40
2018-07-01T05:26:42.923Z,14.60
2018-07-01T05:29:11.407Z,14.70
2018-07-01T05:31:39.892Z,14.70
2018-07-01T05:34:08.397Z,14.70
2018-07-01T05:36:36.880Z,14.80
2018-07-01T05:39:08.861Z,14.80
2018-07-01T05:41:37.694Z,14.90
2018-07-01T05:44:06.297Z,14.90
2018-07-01T05:46:35.809Z,15.00
2018-07-01T05:49:04.613Z,15.10
2018-07-01T05:54:02.494Z,15.20
2018-07-01T05:56:32.300Z,15.30
2018-07-01T05:59:01.474Z,15.40
2018-07-01T06:01:30.642Z,15.50
2018-07-01T06:03:59.124Z,15.60
2018-07-01T06:06:27.640Z,15.60
2018-07-01T06:08:56.338Z,15.70
2018-07-01T06:11:24.826Z,15.80
2018-07-01T06:13:53.534Z,15.80
2018-07-01T06:16:22.430Z,15.80
2018-07-01T06:18:51.081Z,15.80
2018-07-01T06:21:20.231Z,16.00
2018-07-01T06:23:48.735Z,16.20
2018-07-01T06:26:17.907Z,16.20
2018-07-01T06:28:46.743Z,16.30
2018-07-01T06:31:16.156Z,16.40
2018-07-01T06:33:44.665Z,16.50
2018-07-01T06:36:13.169Z,16.60
2018-07-01T06:38:42.362Z,16.70
2018-07-01T06:41:11.229Z,16.80
2018-07-01T06:43:40.859Z,16.90
2018-07-01T06:46:09.721Z,17.00
2018-07-01T06:48:38.224Z,17.00
2018-07-01T06:51:07.508Z,17.10
2018-07-01T06:53:36.636Z,17.10
2018-07-01T06:56:05.279Z,17.10
2018-07-01T06:58:34.789Z,17.20
2018-07-01T07:01:03.250Z,17.30
2018-07-01T07:03:32.587Z,17.30
2018-07-01T07:06:01.075Z,17.30
2018-07-01T07:08:29.889Z,17.40
2018-07-01T07:10:58.348Z,17.60
2018-07-01T07:13:26.841Z,17.70
2018-07-01T07:15:55.703Z,17.70
2018-07-01T07:18:24.634Z,17.80
2018-07-01T07:20:53.157Z,17.80
2018-07-01T07:23:22.015Z,18.00
2018-07-01T07:25:50.782Z,18.10
2018-07-01T07:28:19.854Z,18.20
2018-07-01T07:30:48.349Z,18.20
2018-07-01T07:33:16.859Z,18.30
2018-07-01T07:35:45.382Z,18.40
2018-07-01T07:38:14.482Z,18.50
2018-07-01T07:40:43.300Z,18.40
2018-07-01T07:43:12.701Z,18.50
2018-07-01T07:45:41.868Z,18.60
2018-07-01T07:48:10.368Z,18.70
2018-07-01T07:50:38.864Z,18.70
2018-07-01T07:53:08.005Z,18.70
2018-07-01T07:55:36.538Z,18.90
2018-07-01T07:58:05.402Z,18.90
2018-07-01T08:00:33.944Z,18.90
2018-07-01T08:03:03.416Z,19.10
2018-07-01T08:05:35.074Z,19.10
2018-07-01T08:08:03.617Z,19.20
2018-07-01T08:10:32.441Z,19.30
2018-07-01T08:13:01.297Z,19.50
2018-07-01T08:15:31.258Z,19.60
2018-07-01T08:18:00.098Z,19.60
2018-07-01T08:20:28.965Z,19.60
2018-07-01T08:22:57.876Z,19.70
2018-07-01T08:25:26.898Z,19.90
2018-07-01T08:27:56.104Z,19.90
2018-07-01T08:30:24.600Z,19.80
2018-07-01T08:32:53.114Z,19.90
2018-07-01T08:35:22.300Z,20.00
2018-07-01T08:37:50.797Z,19.90
2018-07-01T08:40:20.155Z,20.00
2018-07-01T08:42:49.044Z,20.10
2018-07-01T08:45:17.742Z,20.10
2018-07-01T08:47:46.245Z,20.10
2018-07-01T08:50:14.741Z,20.20
2018-07-01T08:52:43.352Z,20.00
2018-07-01T08:55:12.046Z,19.90
2018-07-01T08:57:41.562Z,19.70
2018-07-01T09:00:10.085Z,19.50
2018-07-01T09:02:38.799Z,19.30
2018-07-01T09:05:07.627Z,19.50
2018-07-01T09:07:36.099Z,19.80
2018-07-01T09:10:06.069Z,20.20
2018-07-01T09:12:36.124Z,20.60
2018-07-01T09:15:05.867Z,20.90
2018-07-01T09:17:34.423Z,21.00
2018-07-01T09:20:03.726Z,21.10
2018-07-01T09:22:32.581Z,21.20
2018-07-01T09:25:01.348Z,21.30
2018-07-01T09:27:30.848Z,21.30
2018-07-01T09:29:59.757Z,21.20
2018-07-01T09:32:28.730Z,21.00
2018-07-01T09:34:58.735Z,20.80
2018-07-01T09:37:28.422Z,20.80
2018-07-01T09:39:56.970Z,20.50
2018-07-01T09:42:26.853Z,20.40
2018-07-01T09:44:57.033Z,20.20
2018-07-01T09:47:25.546Z,20.20
2018-07-01T09:49:54.393Z,20.30
2018-07-01T09:52:23.838Z,20.60
2018-07-01T09:54:52.662Z,20.90
2018-07-01T09:57:21.498Z,20.80
2018-07-01T09:59:51.857Z,20.90
2018-07-01T10:02:20.718Z,20.90
2018-07-01T10:04:49.922Z,21.00
2018-07-01T10:34:44.824Z,22.30
2018-07-01T10:37:13.661Z,22.00
2018-07-01T10:39:42.928Z,21.90
2018-07-01T10:42:12.313Z,21.70
2018-07-01T10:44:41.804Z,21.20
2018-07-01T10:47:10.623Z,21.10
2018-07-01T10:49:39.114Z,21.20
2018-07-01T10:52:07.950Z,21.20
2018-07-01T10:54:37.170Z,21.30
2018-07-01T10:57:06.305Z,21.50
2018-07-01T10:59:35.134Z,21.50
2018-07-01T11:02:03.674Z,21.50
2018-07-01T11:04:32.186Z,21.40
2018-07-01T11:07:01.389Z,21.30
2018-07-01T11:09:31.238Z,20.90
2018-07-01T11:11:59.758Z,20.70
2018-07-01T11:14:28.272Z,20.20
2018-07-01T11:16:57.130Z,20.20
2018-07-01T11:19:28.279Z,20.40
2018-07-01T11:21:57.111Z,20.50
2018-07-01T11:24:26.812Z,20.70
2018-07-01T11:26:55.489Z,20.70
2018-07-01T11:29:25.934Z,20.80
2018-07-01T11:31:54.405Z,21.10
2018-07-01T11:34:22.922Z,21.50
2018-07-01T11:36:52.093Z,21.70
2018-07-01T11:39:21.256Z,21.80
2018-07-01T11:41:49.772Z,21.90
2018-07-01T11:44:18.633Z,22.00
2018-07-01T11:46:48.013Z,21.80
2018-07-01T12:19:25.661Z,22.70
2018-07-01T12:21:54.205Z,22.90
2018-07-01T12:24:24.268Z,23.00
2018-07-01T12:26:53.341Z,22.70
2018-07-01T12:29:25.235Z,22.70
2018-07-01T12:31:53.943Z,22.50
2018-07-01T12:34:23.571Z,22.60
2018-07-01T12:36:52.444Z,22.50
2018-07-01T12:44:20.940Z,22.30
2018-07-01T12:46:49.800Z,22.30
2018-07-01T12:49:18.626Z,22.00
2018-07-01T12:51:47.125Z,21.70
2018-07-01T12:54:15.685Z,22.10
2018-07-01T12:56:44.564Z,22.30
2018-07-01T12:59:13.420Z,22.30
2018-07-01T13:01:42.148Z,22.40
2018-07-01T13:04:10.733Z,22.20
2018-07-01T13:06:39.922Z,22.00
2018-07-01T13:09:10.905Z,21.90
2018-07-01T13:11:39.848Z,21.70
2018-07-01T13:14:08.972Z,21.70
2018-07-01T13:19:07.601Z,21.70
2018-07-01T13:21:36.520Z,21.80
2018-07-01T13:24:05.421Z,21.80
2018-07-01T13:26:34.747Z,21.90
2018-07-01T13:29:05.388Z,21.90
2018-07-01T13:31:34.205Z,22.10
2018-07-01T13:34:05.285Z,22.20
2018-07-01T13:36:34.923Z,22.50
2018-07-01T13:39:08.533Z,22.60
2018-07-01T13:41:38.724Z,22.60
2018-07-01T13:44:07.905Z,22.40
2018-07-01T13:46:37.611Z,22.20
2018-07-01T13:52:07.675Z,22.30
2018-07-01T13:54:41.204Z,22.10
2018-07-01T13:57:10.120Z,22.00
2018-07-01T13:59:40.054Z,22.10
2018-07-01T14:02:12.566Z,22.20
2018-07-01T14:04:41.293Z,22.20
2018-07-01T14:07:10.187Z,22.20
2018-07-01T14:09:38.773Z,22.30
2018-07-01T14:12:07.424Z,22.30
2018-07-01T14:14:37.109Z,22.40
2018-07-01T14:17:11.719Z,22.30
2018-07-01T14:19:40.591Z,22.30
2018-07-01T14:22:10.724Z,22.30
2018-07-01T14:24:39.575Z,22.10
2018-07-01T14:27:08.521Z,22.00
2018-07-01T14:29:37.219Z,22.00
2018-07-01T14:32:05.900Z,22.10
2018-07-01T14:37:12.630Z,22.20
2018-07-01T14:39:41.445Z,22.30
2018-07-01T14:42:11.106Z,22.40
2018-07-01T14:44:40.018Z,22.40
2018-07-01T14:47:16.334Z,22.70
2018-07-01T14:49:45.088Z,23.00
2018-07-01T14:52:14.873Z,22.90
2018-07-01T14:54:43.385Z,22.70
2018-07-01T14:57:12.626Z,22.50
2018-07-01T14:59:41.589Z,22.50
2018-07-01T15:02:10.093Z,22.60
2018-07-01T15:04:38.822Z,22.50
2018-07-01T15:07:08.537Z,22.50
2018-07-01T15:09:37.730Z,22.40
2018-07-01T15:12:06.240Z,22.40
2018-07-01T15:14:35.129Z,22.60
2018-07-01T15:17:03.652Z,22.50
2018-07-01T15:19:33.762Z,22.50
2018-07-01T15:22:02.271Z,22.50
2018-07-01T15:24:31.002Z,22.50
2018-07-01T15:27:00.180Z,22.30
2018-07-01T15:29:28.732Z,22.20
2018-07-01T15:31:57.928Z,22.20
2018-07-01T15:34:27.277Z,22.10
2018-07-01T15:36:57.017Z,22.10
2018-07-01T15:39:26.140Z,22.10
2018-07-01T15:41:56.017Z,22.20
2018-07-01T15:44:24.919Z,22.30
2018-07-01T15:46:53.760Z,22.50
2018-07-01T15:49:23.119Z,22.70
2018-07-01T15:51:52.532Z,22.90
2018-07-01T15:54:22.109Z,22.90
2018-07-01T15:56:50.916Z,22.80
2018-07-01T15:59:19.784Z,22.70
2018-07-01T16:01:49.980Z,22.70
2018-07-01T16:04:19.075Z,22.80
2018-07-01T16:06:48.247Z,22.70
2018-07-01T16:09:18.172Z,22.60
2018-07-01T16:11:47.019Z,22.50
2018-07-01T16:14:15.661Z,22.50
2018-07-01T16:16:44.145Z,22.40
2018-07-01T16:19:12.849Z,22.40
2018-07-01T16:21:41.665Z,22.30
2018-07-01T16:24:10.509Z,22.40
2018-07-01T16:26:44.441Z,22.40
2018-07-01T16:29:12.945Z,22.40
2018-07-01T16:31:42.808Z,22.40
2018-07-01T16:34:11.334Z,22.20
2018-07-01T16:36:40.561Z,22.20
2018-07-01T16:39:10.494Z,22.30
2018-07-01T16:41:39.132Z,22.30
2018-07-01T16:44:07.995Z,22.40
2018-07-01T16:46:36.670Z,22.40
2018-07-01T16:49:05.247Z,22.40
2018-07-01T16:51:33.729Z,22.50
2018-07-01T16:54:02.905Z,22.50
2018-07-01T16:56:31.749Z,22.50
2018-07-01T16:59:00.582Z,22.40
2018-07-01T17:01:29.289Z,22.30
2018-07-01T17:03:57.760Z,22.30
2018-07-01T17:06:26.889Z,22.20
2018-07-01T17:08:55.701Z,22.10
2018-07-01T17:11:24.532Z,22.00
2018-07-01T17:13:53.050Z,22.10
2018-07-01T17:16:21.901Z,22.00
2018-07-01T17:18:50.393Z,21.90
2018-07-01T17:21:19.338Z,22.00
2018-07-01T17:23:47.860Z,22.10
2018-07-01T17:26:16.993Z,22.10
2018-07-01T17:28:45.501Z,22.10
2018-07-01T17:31:20.230Z,22.20
2018-07-01T17:33:49.016Z,22.10
2018-07-01T17:36:17.529Z,21.80
2018-07-01T17:38:46.021Z,21.90
2018-07-01T17:41:14.562Z,22.00
2018-07-01T17:43:43.837Z,22.00
2018-07-01T17:46:13.243Z,22.00
2018-07-01T17:48:42.901Z,22.10
2018-07-01T17:51:11.793Z,22.10
2018-07-01T17:53:55.467Z,22.10
2018-07-01T17:56:24.543Z,22.20
2018-07-01T17:58:54.210Z,22.10
2018-07-01T18:01:23.565Z,21.90
2018-07-01T18:03:52.088Z,21.80
2018-07-01T18:06:20.925Z,21.80
2018-07-01T18:08:51.113Z,21.60
2018-07-01T18:11:20.421Z,21.50
2018-07-01T18:13:49.283Z,21.50
2018-07-01T18:16:18.528Z,21.50
2018-07-01T18:18:47.625Z,21.40
2018-07-01T18:21:20.254Z,21.30
2018-07-01T18:26:25.612Z,21.20
2018-07-01T18:29:05.469Z,21.10
2018-07-01T18:34:03.257Z,21.00
2018-07-01T18:36:36.008Z,21.00
2018-07-01T18:39:09.107Z,20.90
2018-07-01T18:41:39.221Z,20.90
2018-07-01T18:44:07.876Z,20.80
2018-07-01T18:46:37.498Z,20.70
2018-07-01T18:49:07.618Z,20.70
2018-07-01T18:51:37.218Z,20.60
2018-07-01T18:54:07.090Z,20.50
2018-07-01T18:56:35.722Z,20.50
2018-07-01T18:59:04.752Z,20.50
2018-07-01T19:01:33.304Z,20.40
2018-07-01T19:04:02.538Z,20.40
2018-07-01T19:06:31.150Z,20.30
2018-07-01T19:09:00.446Z,20.20
2018-07-01T19:11:29.387Z,20.20
2018-07-01T19:14:00.067Z,20.10
2018-07-01T19:16:30.027Z,20.10
2018-07-01T19:21:29.442Z,20.00
2018-07-01T19:23:59.107Z,19.90
2018-07-01T19:26:28.884Z,19.70
2018-07-01T19:28:58.500Z,19.70
2018-07-01T19:31:29.502Z,19.60
2018-07-01T19:33:59.495Z,19.50
2018-07-01T19:36:28.753Z,19.40
2018-07-01T19:38:57.384Z,19.40
2018-07-01T19:41:26.302Z,19.30
2018-07-01T19:43:54.933Z,19.20
2018-07-01T19:46:23.981Z,19.20
2018-07-01T19:48:52.487Z,19.20
2018-07-01T19:51:21.360Z,19.10
2018-07-01T19:53:50.307Z,19.00
2018-07-01T19:56:19.135Z,19.00
2018-07-01T19:58:47.721Z,18.90
2018-07-01T20:01:16.244Z,18.90
2018-07-01T20:03:45.981Z,18.80
2018-07-01T20:06:15.313Z,18.70
2018-07-01T20:08:45.234Z,18.60
2018-07-01T20:11:13.766Z,18.60
2018-07-01T20:13:43.216Z,18.60
2018-07-01T20:16:12.231Z,18.60
2018-07-01T20:18:40.939Z,18.60
2018-07-01T20:21:09.466Z,18.50
2018-07-01T20:23:38.021Z,18.50
2018-07-01T20:26:07.277Z,18.30
2018-07-01T20:28:36.449Z,18.30
2018-07-01T20:31:05.382Z,18.30
2018-07-01T20:33:34.078Z,18.20
2018-07-01T20:36:03.319Z,18.10
2018-07-01T20:38:32.391Z,18.00
2018-07-01T20:41:01.285Z,17.90
2018-07-01T20:43:30.420Z,17.90
2018-07-01T20:45:59.685Z,17.90
2018-07-01T20:48:28.281Z,17.90
2018-07-01T20:50:57.525Z,17.80
2018-07-01T20:53:27.152Z,17.80
2018-07-01T20:55:55.669Z,17.80
2018-07-01T20:58:24.482Z,17.70
2018-07-01T21:00:53.352Z,17.70
2018-07-01T21:03:22.201Z,17.60
2018-07-01T21:05:51.234Z,17.50
2018-07-01T21:08:19.752Z,17.50
2018-07-01T21:10:48.241Z,17.50
2018-07-01T21:13:17.549Z,17.40
2018-07-01T21:15:46.394Z,17.40
2018-07-01T21:18:16.661Z,17.30
2018-07-01T21:20:45.829Z,17.20
2018-07-01T21:23:14.668Z,17.20
2018-07-01T21:25:43.586Z,17.20
2018-07-01T21:28:13.486Z,17.10
2018-07-01T21:30:43.276Z,17.10
2018-07-01T21:33:12.441Z,17.00
2018-07-01T21:35:43.049Z,16.90
2018-07-01T21:38:12.049Z,16.80
2018-07-01T21:40:41.121Z,16.80
2018-07-01T21:43:09.798Z,16.70
2018-07-01T21:45:38.924Z,16.70
2018-07-01T21:50:47.288Z,16.70
2018-07-01T21:53:15.976Z,16.70
2018-07-01T21:55:45.756Z,16.60
2018-07-01T21:58:14.789Z,16.60
2018-07-01T22:00:43.523Z,16.50
2018-07-01T22:03:12.177Z,16.50
2018-07-01T22:05:40.869Z,16.50
2018-07-01T22:08:10.253Z,16.40
2018-07-01T22:10:50.308Z,16.40
2018-07-01T22:14:35.233Z,16.40
2018-07-01T22:17:05.158Z,16.30
2018-07-01T22:19:34.462Z,16.20
2018-07-01T22:22:03.329Z,16.10
2018-07-01T22:24:35.301Z,16.10
2018-07-01T22:27:04.033Z,16.00
2018-07-01T22:29:33.053Z,16.00
2018-07-01T22:32:01.765Z,15.90
2018-07-01T22:34:30.468Z,15.90
2018-07-01T22:39:30.213Z,15.80
2018-07-01T22:42:00.010Z,15.80
2018-07-01T22:44:29.401Z,15.80
2018-07-01T22:46:58.791Z,15.70
2018-07-01T22:49:28.006Z,15.60
2018-07-01T22:54:25.481Z,15.50
2018-07-01T22:56:54.819Z,15.50
2018-07-01T22:59:23.879Z,15.40
2018-07-01T23:03:13.505Z,15.40
2018-07-01T23:05:42.319Z,15.40
2018-07-01T23:08:11.007Z,15.30
2018-07-01T23:10:40.351Z,15.30
2018-07-01T23:13:09.750Z,15.20
2018-07-01T23:15:38.432Z,15.10
2018-07-01T23:18:07.108Z,15.00
2018-07-01T23:20:36.116Z,15.00
2018-07-01T23:23:04.807Z,14.90
2018-07-01T23:25:33.821Z,14.90
2018-07-01T23:28:02.845Z,14.90
2018-07-01T23:30:31.547Z,14.90
2018-07-01T23:33:00.574Z,14.80
2018-07-01T23:35:29.248Z,14.80
2018-07-01T23:37:57.941Z,14.80
2018-07-01T23:40:27.033Z,14.70
2018-07-01T23:42:55.714Z,14.70
2018-07-01T23:45:24.402Z,14.70
2018-07-01T23:47:53.421Z,14.60
2018-07-01T23:50:22.438Z,14.60
2018-07-01T23:52:52.084Z,14.50
2018-07-01T23:55:21.102Z,14.40
2018-07-01T23:57:50.096Z,14.40
